sensor_id;sensor_type;location;lat;lon;timestamp;P1;durP1;ratioP1;P2;durP2;ratioP2
70796;SDS011;63842;52.144;5.360;2024-01-10T00:00:01;7.47;;;1.92;;
70796;SDS011;63842;52.144;5.360;2024-01-10T00:02:37;6.78;;;2.13;;
70796;SDS011;63842;52.144;5.360;2024-01-10T00:05:16;6.00;;;2.10;;
70796;SDS011;63842;52.144;5.360;2024-01-10T00:07:54;6.30;;;2.22;;
70796;SDS011;63842;52.144;5.360;2024-01-10T00:10:36;7.10;;;2.38;;
70796;SDS011;63842;52.144;5.360;2024-01-10T00:13:14;5.85;;;1.95;;
70796;SDS011;63842;52.144;5.360;2024-01-10T00:15:45;7.53;;;2.42;;
70796;SDS011;63842;52.144;5.360;2024-01-10T00:18:13;8.15;;;2.17;;
70796;SDS011;63842;52.144;5.360;2024-01-10T00:20:41;8.30;;;2.20;;
70796;SDS011;63842;52.144;5.360;2024-01-10T00:23:27;7.07;;;2.10;;
70796;SDS011;63842;52.144;5.360;2024-01-10T00:25:55;7.55;;;2.00;;
70796;SDS011;63842;52.144;5.360;2024-01-10T00:28:28;7.18;;;2.17;;
70796;SDS011;63842;52.144;5.360;2024-01-10T00:30:56;6.18;;;2.28;;
70796;SDS011;63842;52.144;5.360;2024-01-10T00:33:31;7.65;;;2.03;;
70796;SDS011;63842;52.144;5.360;2024-01-10T00:35:58;8.70;;;2.25;;
70796;SDS011;63842;52.144;5.360;2024-01-10T00:38:26;7.65;;;2.42;;
70796;SDS011;63842;52.144;5.360;2024-01-10T00:40:53;6.55;;;2.10;;
70796;SDS011;63842;52.144;5.360;2024-01-10T00:43:29;8.68;;;2.30;;
70796;SDS011;63842;52.144;5.360;2024-01-10T00:46:15;8.15;;;2.90;;
70796;SDS011;63842;52.144;5.360;2024-01-10T00:48:55;8.20;;;2.45;;
70796;SDS011;63842;52.144;5.360;2024-01-10T00:51:29;8.30;;;2.30;;
70796;SDS011;63842;52.144;5.360;2024-01-10T00:53:57;6.45;;;2.30;;
70796;SDS011;63842;52.144;5.360;2024-01-10T00:58:54;8.48;;;2.20;;
70796;SDS011;63842;52.144;5.360;2024-01-10T01:01:24;8.45;;;2.40;;
70796;SDS011;63842;52.144;5.360;2024-01-10T01:04:11;7.38;;;2.33;;
70796;SDS011;63842;52.144;5.360;2024-01-10T01:06:39;5.95;;;2.15;;
70796;SDS011;63842;52.144;5.360;2024-01-10T01:09:20;8.80;;;2.42;;
70796;SDS011;63842;52.144;5.360;2024-01-10T01:11:48;7.70;;;2.10;;
70796;SDS011;63842;52.144;5.360;2024-01-10T01:14:17;8.10;;;2.63;;
70796;SDS011;63842;52.144;5.360;2024-01-10T01:16:44;6.72;;;1.95;;
70796;SDS011;63842;52.144;5.360;2024-01-10T01:19:18;8.80;;;2.20;;
70796;SDS011;63842;52.144;5.360;2024-01-10T01:21:51;6.03;;;2.30;;
70796;SDS011;63842;52.144;5.360;2024-01-10T01:24:19;7.43;;;2.08;;
70796;SDS011;63842;52.144;5.360;2024-01-10T01:26:47;7.18;;;2.45;;
70796;SDS011;63842;52.144;5.360;2024-01-10T01:29:15;6.70;;;2.42;;
70796;SDS011;63842;52.144;5.360;2024-01-10T01:31:52;5.53;;;2.00;;
70796;SDS011;63842;52.144;5.360;2024-01-10T01:34:26;7.97;;;2.70;;
70796;SDS011;63842;52.144;5.360;2024-01-10T01:37:10;7.85;;;2.25;;
70796;SDS011;63842;52.144;5.360;2024-01-10T01:39:46;8.18;;;2.53;;
70796;SDS011;63842;52.144;5.360;2024-01-10T01:42:19;7.63;;;2.28;;
70796;SDS011;63842;52.144;5.360;2024-01-10T01:44:46;8.27;;;2.08;;
70796;SDS011;63842;52.144;5.360;2024-01-10T01:47:14;6.53;;;2.40;;
70796;SDS011;63842;52.144;5.360;2024-01-10T01:49:49;6.95;;;2.17;;
70796;SDS011;63842;52.144;5.360;2024-01-10T01:52:16;8.05;;;2.22;;
70796;SDS011;63842;52.144;5.360;2024-01-10T01:54:44;7.75;;;2.33;;
70796;SDS011;63842;52.144;5.360;2024-01-10T01:57:15;7.20;;;2.30;;
70796;SDS011;63842;52.144;5.360;2024-01-10T01:59:43;7.20;;;2.70;;
70796;SDS011;63842;52.144;5.360;2024-01-10T02:02:10;8.60;;;2.58;;
70796;SDS011;63842;52.144;5.360;2024-01-10T02:04:45;8.32;;;2.70;;
70796;SDS011;63842;52.144;5.360;2024-01-10T02:07:18;7.40;;;2.47;;
70796;SDS011;63842;52.144;5.360;2024-01-10T02:09:55;7.85;;;2.22;;
70796;SDS011;63842;52.144;5.360;2024-01-10T02:12:23;6.95;;;2.45;;
70796;SDS011;63842;52.144;5.360;2024-01-10T02:14:56;8.13;;;2.35;;
70796;SDS011;63842;52.144;5.360;2024-01-10T02:17:25;7.15;;;2.13;;
70796;SDS011;63842;52.144;5.360;2024-01-10T02:20:10;7.43;;;2.45;;
70796;SDS011;63842;52.144;5.360;2024-01-10T02:22:41;7.05;;;2.40;;
70796;SDS011;63842;52.144;5.360;2024-01-10T02:25:10;7.72;;;2.63;;
70796;SDS011;63842;52.144;5.360;2024-01-10T02:27:44;5.95;;;2.00;;
70796;SDS011;63842;52.144;5.360;2024-01-10T02:30:11;7.78;;;2.53;;
70796;SDS011;63842;52.144;5.360;2024-01-10T02:32:44;7.88;;;2.35;;
70796;SDS011;63842;52.144;5.360;2024-01-10T02:35:12;7.15;;;2.35;;
70796;SDS011;63842;52.144;5.360;2024-01-10T02:37:41;7.55;;;2.25;;
70796;SDS011;63842;52.144;5.360;2024-01-10T02:40:18;7.57;;;2.33;;
70796;SDS011;63842;52.144;5.360;2024-01-10T02:42:52;7.60;;;2.67;;
70796;SDS011;63842;52.144;5.360;2024-01-10T02:45:24;6.85;;;2.55;;
70796;SDS011;63842;52.144;5.360;2024-01-10T02:47:52;7.68;;;2.38;;
70796;SDS011;63842;52.144;5.360;2024-01-10T02:50:27;8.32;;;2.47;;
70796;SDS011;63842;52.144;5.360;2024-01-10T02:52:57;8.10;;;2.30;;
70796;SDS011;63842;52.144;5.360;2024-01-10T02:55:26;8.80;;;2.88;;
70796;SDS011;63842;52.144;5.360;2024-01-10T02:57:59;7.85;;;2.70;;
70796;SDS011;63842;52.144;5.360;2024-01-10T03:00:30;9.35;;;3.05;;
70796;SDS011;63842;52.144;5.360;2024-01-10T03:03:02;7.07;;;2.60;;
70796;SDS011;63842;52.144;5.360;2024-01-10T03:05:31;7.70;;;2.60;;
70796;SDS011;63842;52.144;5.360;2024-01-10T03:08:00;7.88;;;2.90;;
70796;SDS011;63842;52.144;5.360;2024-01-10T03:10:35;7.15;;;2.55;;
70796;SDS011;63842;52.144;5.360;2024-01-10T03:13:02;7.25;;;2.45;;
70796;SDS011;63842;52.144;5.360;2024-01-10T03:15:42;8.57;;;2.65;;
70796;SDS011;63842;52.144;5.360;2024-01-10T03:18:12;8.65;;;2.72;;
70796;SDS011;63842;52.144;5.360;2024-01-10T03:20:51;7.00;;;2.58;;
70796;SDS011;63842;52.144;5.360;2024-01-10T03:23:20;7.43;;;2.70;;
70796;SDS011;63842;52.144;5.360;2024-01-10T03:25:48;8.88;;;2.78;;
70796;SDS011;63842;52.144;5.360;2024-01-10T03:28:19;8.10;;;3.00;;
70796;SDS011;63842;52.144;5.360;2024-01-10T03:30:48;8.45;;;2.75;;
70796;SDS011;63842;52.144;5.360;2024-01-10T03:33:21;7.35;;;2.70;;
70796;SDS011;63842;52.144;5.360;2024-01-10T03:35:56;8.50;;;2.47;;
70796;SDS011;63842;52.144;5.360;2024-01-10T03:38:25;8.35;;;3.10;;
70796;SDS011;63842;52.144;5.360;2024-01-10T03:40:53;8.68;;;2.90;;
70796;SDS011;63842;52.144;5.360;2024-01-10T03:43:30;9.38;;;2.78;;
70796;SDS011;63842;52.144;5.360;2024-01-10T03:46:05;8.90;;;2.95;;
70796;SDS011;63842;52.144;5.360;2024-01-10T03:48:32;7.30;;;2.60;;
70796;SDS011;63842;52.144;5.360;2024-01-10T03:51:14;8.70;;;2.85;;
70796;SDS011;63842;52.144;5.360;2024-01-10T03:53:43;7.63;;;3.00;;
70796;SDS011;63842;52.144;5.360;2024-01-10T03:56:11;7.75;;;2.38;;
70796;SDS011;63842;52.144;5.360;2024-01-10T03:58:40;8.25;;;2.33;;
70796;SDS011;63842;52.144;5.360;2024-01-10T04:01:36;8.15;;;2.90;;
70796;SDS011;63842;52.144;5.360;2024-01-10T04:04:07;8.98;;;2.60;;
70796;SDS011;63842;52.144;5.360;2024-01-10T04:06:37;8.35;;;2.72;;
70796;SDS011;63842;52.144;5.360;2024-01-10T04:09:04;7.95;;;2.47;;
70796;SDS011;63842;52.144;5.360;2024-01-10T04:11:38;9.85;;;3.15;;
70796;SDS011;63842;52.144;5.360;2024-01-10T04:14:11;9.40;;;2.83;;
70796;SDS011;63842;52.144;5.360;2024-01-10T04:16:40;7.63;;;2.58;;
70796;SDS011;63842;52.144;5.360;2024-01-10T04:19:15;8.48;;;2.80;;
70796;SDS011;63842;52.144;5.360;2024-01-10T04:21:48;7.38;;;2.58;;
70796;SDS011;63842;52.144;5.360;2024-01-10T04:24:20;6.82;;;2.33;;
70796;SDS011;63842;52.144;5.360;2024-01-10T04:26:54;7.85;;;2.70;;
70796;SDS011;63842;52.144;5.360;2024-01-10T04:29:26;8.82;;;2.63;;
70796;SDS011;63842;52.144;5.360;2024-01-10T04:31:58;7.80;;;2.67;;
70796;SDS011;63842;52.144;5.360;2024-01-10T04:34:29;8.02;;;2.92;;
70796;SDS011;63842;52.144;5.360;2024-01-10T04:37:00;9.23;;;3.28;;
70796;SDS011;63842;52.144;5.360;2024-01-10T04:39:29;8.02;;;2.75;;
70796;SDS011;63842;52.144;5.360;2024-01-10T04:42:00;7.72;;;2.40;;
70796;SDS011;63842;52.144;5.360;2024-01-10T04:44:27;7.18;;;2.53;;
70796;SDS011;63842;52.144;5.360;2024-01-10T04:47:05;9.10;;;2.72;;
70796;SDS011;63842;52.144;5.360;2024-01-10T04:49:36;7.82;;;2.67;;
70796;SDS011;63842;52.144;5.360;2024-01-10T04:52:06;6.68;;;2.38;;
70796;SDS011;63842;52.144;5.360;2024-01-10T04:54:42;8.98;;;2.83;;
70796;SDS011;63842;52.144;5.360;2024-01-10T04:57:14;7.88;;;2.67;;
70796;SDS011;63842;52.144;5.360;2024-01-10T04:59:51;11.85;;;2.90;;
70796;SDS011;63842;52.144;5.360;2024-01-10T05:02:21;8.57;;;2.70;;
70796;SDS011;63842;52.144;5.360;2024-01-10T05:04:48;8.70;;;2.78;;
70796;SDS011;63842;52.144;5.360;2024-01-10T05:07:30;7.43;;;2.90;;
70796;SDS011;63842;52.144;5.360;2024-01-10T05:10:08;8.90;;;2.75;;
70796;SDS011;63842;52.144;5.360;2024-01-10T05:12:38;8.15;;;2.72;;
70796;SDS011;63842;52.144;5.360;2024-01-10T05:15:07;7.75;;;2.33;;
70796;SDS011;63842;52.144;5.360;2024-01-10T05:17:41;7.40;;;2.50;;
70796;SDS011;63842;52.144;5.360;2024-01-10T05:20:09;9.15;;;2.83;;
70796;SDS011;63842;52.144;5.360;2024-01-10T05:22:42;8.98;;;2.80;;
70796;SDS011;63842;52.144;5.360;2024-01-10T05:25:09;8.65;;;2.80;;
70796;SDS011;63842;52.144;5.360;2024-01-10T05:27:52;9.07;;;2.70;;
70796;SDS011;63842;52.144;5.360;2024-01-10T05:30:20;9.23;;;2.88;;
70796;SDS011;63842;52.144;5.360;2024-01-10T05:32:58;7.78;;;2.80;;
70796;SDS011;63842;52.144;5.360;2024-01-10T05:35:32;10.32;;;2.92;;
70796;SDS011;63842;52.144;5.360;2024-01-10T05:38:10;9.38;;;3.00;;
70796;SDS011;63842;52.144;5.360;2024-01-10T05:40:39;12.40;;;2.70;;
70796;SDS011;63842;52.144;5.360;2024-01-10T05:43:07;9.52;;;2.80;;
70796;SDS011;63842;52.144;5.360;2024-01-10T05:45:34;10.05;;;2.80;;
70796;SDS011;63842;52.144;5.360;2024-01-10T05:48:03;8.35;;;3.05;;
70796;SDS011;63842;52.144;5.360;2024-01-10T05:50:33;11.52;;;3.40;;
70796;SDS011;63842;52.144;5.360;2024-01-10T05:53:11;9.30;;;3.05;;
70796;SDS011;63842;52.144;5.360;2024-01-10T05:55:51;9.52;;;3.13;;
70796;SDS011;63842;52.144;5.360;2024-01-10T05:58:24;8.32;;;3.00;;
70796;SDS011;63842;52.144;5.360;2024-01-10T06:01:06;9.30;;;3.00;;
70796;SDS011;63842;52.144;5.360;2024-01-10T06:03:52;9.20;;;3.08;;
70796;SDS011;63842;52.144;5.360;2024-01-10T06:06:35;8.95;;;3.10;;
70796;SDS011;63842;52.144;5.360;2024-01-10T06:14:24;8.68;;;2.70;;
70796;SDS011;63842;52.144;5.360;2024-01-10T06:17:08;9.68;;;3.05;;
70796;SDS011;63842;52.144;5.360;2024-01-10T06:19:36;9.27;;;3.38;;
70796;SDS011;63842;52.144;5.360;2024-01-10T06:22:03;10.55;;;3.40;;
70796;SDS011;63842;52.144;5.360;2024-01-10T06:25:06;8.25;;;2.92;;
70796;SDS011;63842;52.144;5.360;2024-01-10T06:27:40;10.52;;;2.92;;
70796;SDS011;63842;52.144;5.360;2024-01-10T06:30:33;8.73;;;2.90;;
70796;SDS011;63842;52.144;5.360;2024-01-10T06:33:05;10.75;;;3.42;;
70796;SDS011;63842;52.144;5.360;2024-01-10T06:35:43;9.63;;;3.03;;
70796;SDS011;63842;52.144;5.360;2024-01-10T06:38:22;10.43;;;3.50;;
70796;SDS011;63842;52.144;5.360;2024-01-10T06:40:54;11.13;;;3.30;;
70796;SDS011;63842;52.144;5.360;2024-01-10T06:43:28;21.98;;;8.63;;
70796;SDS011;63842;52.144;5.360;2024-01-10T06:46:08;12.75;;;6.30;;
70796;SDS011;63842;52.144;5.360;2024-01-10T06:48:47;17.52;;;5.32;;
70796;SDS011;63842;52.144;5.360;2024-01-10T06:54:10;8.77;;;4.00;;
70796;SDS011;63842;52.144;5.360;2024-01-10T06:56:58;9.50;;;3.55;;
70796;SDS011;63842;52.144;5.360;2024-01-10T06:59:31;8.85;;;3.83;;
70796;SDS011;63842;52.144;5.360;2024-01-10T07:02:05;10.30;;;3.33;;
70796;SDS011;63842;52.144;5.360;2024-01-10T07:04:40;12.73;;;3.85;;
70796;SDS011;63842;52.144;5.360;2024-01-10T07:07:17;9.85;;;3.45;;
70796;SDS011;63842;52.144;5.360;2024-01-10T07:09:46;11.30;;;3.47;;
70796;SDS011;63842;52.144;5.360;2024-01-10T07:12:17;11.43;;;3.20;;
70796;SDS011;63842;52.144;5.360;2024-01-10T07:15:10;9.35;;;3.15;;
70796;SDS011;63842;52.144;5.360;2024-01-10T07:17:44;10.30;;;4.22;;
70796;SDS011;63842;52.144;5.360;2024-01-10T07:20:29;9.15;;;3.85;;
70796;SDS011;63842;52.144;5.360;2024-01-10T07:23:09;10.77;;;3.80;;
70796;SDS011;63842;52.144;5.360;2024-01-10T07:28:33;14.05;;;4.03;;
70796;SDS011;63842;52.144;5.360;2024-01-10T07:31:11;11.73;;;3.90;;
70796;SDS011;63842;52.144;5.360;2024-01-10T07:33:41;9.07;;;3.35;;
70796;SDS011;63842;52.144;5.360;2024-01-10T07:36:19;10.20;;;4.00;;
70796;SDS011;63842;52.144;5.360;2024-01-10T07:38:48;11.88;;;3.17;;
70796;SDS011;63842;52.144;5.360;2024-01-10T07:41:47;10.68;;;3.38;;
70796;SDS011;63842;52.144;5.360;2024-01-10T07:44:38;8.52;;;3.13;;
70796;SDS011;63842;52.144;5.360;2024-01-10T07:47:28;10.25;;;3.65;;
70796;SDS011;63842;52.144;5.360;2024-01-10T07:50:02;11.27;;;3.58;;
70796;SDS011;63842;52.144;5.360;2024-01-10T07:52:43;9.35;;;2.85;;
70796;SDS011;63842;52.144;5.360;2024-01-10T07:55:13;8.38;;;3.20;;
70796;SDS011;63842;52.144;5.360;2024-01-10T07:57:43;10.65;;;3.75;;
70796;SDS011;63842;52.144;5.360;2024-01-10T08:00:13;11.95;;;3.65;;
70796;SDS011;63842;52.144;5.360;2024-01-10T08:02:56;10.52;;;3.90;;
70796;SDS011;63842;52.144;5.360;2024-01-10T08:05:36;9.10;;;3.30;;
70796;SDS011;63842;52.144;5.360;2024-01-10T08:08:17;7.43;;;3.05;;
70796;SDS011;63842;52.144;5.360;2024-01-10T08:10:48;10.98;;;3.55;;
70796;SDS011;63842;52.144;5.360;2024-01-10T08:13:27;10.32;;;3.17;;
70796;SDS011;63842;52.144;5.360;2024-01-10T08:15:57;11.45;;;3.78;;
70796;SDS011;63842;52.144;5.360;2024-01-10T08:18:27;10.70;;;3.63;;
70796;SDS011;63842;52.144;5.360;2024-01-10T08:20:56;10.57;;;4.13;;
70796;SDS011;63842;52.144;5.360;2024-01-10T08:25:57;11.15;;;3.60;;
70796;SDS011;63842;52.144;5.360;2024-01-10T08:31:51;12.27;;;3.58;;
70796;SDS011;63842;52.144;5.360;2024-01-10T08:34:23;11.05;;;3.03;;
70796;SDS011;63842;52.144;5.360;2024-01-10T08:37:03;10.73;;;4.03;;
70796;SDS011;63842;52.144;5.360;2024-01-10T08:39:58;10.77;;;3.67;;
70796;SDS011;63842;52.144;5.360;2024-01-10T08:42:31;11.10;;;3.88;;
70796;SDS011;63842;52.144;5.360;2024-01-10T08:45:03;9.13;;;3.53;;
70796;SDS011;63842;52.144;5.360;2024-01-10T08:50:14;9.88;;;3.30;;
70796;SDS011;63842;52.144;5.360;2024-01-10T08:52:54;13.95;;;3.88;;
70796;SDS011;63842;52.144;5.360;2024-01-10T08:55:29;10.55;;;3.50;;
70796;SDS011;63842;52.144;5.360;2024-01-10T08:57:59;10.30;;;3.58;;
70796;SDS011;63842;52.144;5.360;2024-01-10T09:00:40;12.40;;;3.90;;
70796;SDS011;63842;52.144;5.360;2024-01-10T09:03:08;11.27;;;3.78;;
70796;SDS011;63842;52.144;5.360;2024-01-10T09:05:52;9.98;;;3.28;;
70796;SDS011;63842;52.144;5.360;2024-01-10T09:08:45;9.15;;;3.40;;
70796;SDS011;63842;52.144;5.360;2024-01-10T09:11:22;12.18;;;3.85;;
70796;SDS011;63842;52.144;5.360;2024-01-10T09:13:53;9.98;;;3.47;;
70796;SDS011;63842;52.144;5.360;2024-01-10T09:16:25;11.55;;;3.38;;
70796;SDS011;63842;52.144;5.360;2024-01-10T09:19:12;9.38;;;3.70;;
70796;SDS011;63842;52.144;5.360;2024-01-10T09:21:43;12.20;;;3.63;;
70796;SDS011;63842;52.144;5.360;2024-01-10T09:24:14;10.35;;;3.53;;
70796;SDS011;63842;52.144;5.360;2024-01-10T09:26:56;10.40;;;3.85;;
70796;SDS011;63842;52.144;5.360;2024-01-10T09:29:34;9.73;;;3.30;;
70796;SDS011;63842;52.144;5.360;2024-01-10T09:32:31;10.25;;;3.40;;
70796;SDS011;63842;52.144;5.360;2024-01-10T09:37:33;8.75;;;3.13;;
70796;SDS011;63842;52.144;5.360;2024-01-10T09:40:14;9.60;;;3.55;;
70796;SDS011;63842;52.144;5.360;2024-01-10T09:42:51;14.10;;;3.95;;
70796;SDS011;63842;52.144;5.360;2024-01-10T09:45:27;8.30;;;3.08;;
70796;SDS011;63842;52.144;5.360;2024-01-10T09:48:00;9.65;;;3.78;;
70796;SDS011;63842;52.144;5.360;2024-01-10T09:50:39;10.98;;;3.55;;
70796;SDS011;63842;52.144;5.360;2024-01-10T09:53:17;11.88;;;4.15;;
70796;SDS011;63842;52.144;5.360;2024-01-10T09:55:50;9.88;;;3.42;;
70796;SDS011;63842;52.144;5.360;2024-01-10T09:58:19;11.27;;;3.40;;
70796;SDS011;63842;52.144;5.360;2024-01-10T10:00:50;11.73;;;3.63;;
70796;SDS011;63842;52.144;5.360;2024-01-10T10:03:19;11.52;;;3.72;;
70796;SDS011;63842;52.144;5.360;2024-01-10T10:05:57;18.23;;;3.80;;
70796;SDS011;63842;52.144;5.360;2024-01-10T10:08:42;10.73;;;3.63;;
70796;SDS011;63842;52.144;5.360;2024-01-10T10:11:21;12.50;;;3.75;;
70796;SDS011;63842;52.144;5.360;2024-01-10T10:17:38;9.27;;;3.63;;
70796;SDS011;63842;52.144;5.360;2024-01-10T10:19:46;11.45;;;3.67;;
70796;SDS011;63842;52.144;5.360;2024-01-10T10:22:22;11.15;;;3.67;;
70796;SDS011;63842;52.144;5.360;2024-01-10T10:24:51;13.20;;;3.92;;
70796;SDS011;63842;52.144;5.360;2024-01-10T10:27:35;9.93;;;3.90;;
70796;SDS011;63842;52.144;5.360;2024-01-10T10:30:15;9.73;;;3.78;;
70796;SDS011;63842;52.144;5.360;2024-01-10T10:32:57;12.23;;;4.03;;
70796;SDS011;63842;52.144;5.360;2024-01-10T10:35:44;11.48;;;3.63;;
70796;SDS011;63842;52.144;5.360;2024-01-10T10:38:31;10.02;;;3.60;;
70796;SDS011;63842;52.144;5.360;2024-01-10T10:41:06;16.45;;;8.63;;
70796;SDS011;63842;52.144;5.360;2024-01-10T10:43:47;12.43;;;5.47;;
70796;SDS011;63842;52.144;5.360;2024-01-10T10:46:41;11.30;;;5.28;;
70796;SDS011;63842;52.144;5.360;2024-01-10T10:49:53;13.13;;;3.63;;
70796;SDS011;63842;52.144;5.360;2024-01-10T10:53:02;11.93;;;4.10;;
70796;SDS011;63842;52.144;5.360;2024-01-10T10:55:51;10.50;;;4.38;;
70796;SDS011;63842;52.144;5.360;2024-01-10T10:58:38;9.95;;;3.70;;
70796;SDS011;63842;52.144;5.360;2024-01-10T11:01:12;11.82;;;4.00;;
70796;SDS011;63842;52.144;5.360;2024-01-10T11:03:56;12.65;;;4.07;;
70796;SDS011;63842;52.144;5.360;2024-01-10T11:06:25;10.00;;;3.05;;
70796;SDS011;63842;52.144;5.360;2024-01-10T11:09:19;9.98;;;3.80;;
70796;SDS011;63842;52.144;5.360;2024-01-10T11:12:25;12.30;;;3.80;;
70796;SDS011;63842;52.144;5.360;2024-01-10T11:23:48;12.43;;;3.78;;
70796;SDS011;63842;52.144;5.360;2024-01-10T11:26:28;14.52;;;4.18;;
70796;SDS011;63842;52.144;5.360;2024-01-10T11:29:02;11.43;;;3.70;;
70796;SDS011;63842;52.144;5.360;2024-01-10T11:32:16;10.80;;;3.67;;
70796;SDS011;63842;52.144;5.360;2024-01-10T11:35:11;11.18;;;3.83;;
70796;SDS011;63842;52.144;5.360;2024-01-10T11:37:47;14.65;;;4.10;;
70796;SDS011;63842;52.144;5.360;2024-01-10T11:40:45;12.30;;;3.70;;
70796;SDS011;63842;52.144;5.360;2024-01-10T11:43:18;11.90;;;4.28;;
70796;SDS011;63842;52.144;5.360;2024-01-10T11:46:07;10.77;;;3.55;;
70796;SDS011;63842;52.144;5.360;2024-01-10T11:49:07;16.10;;;4.00;;
70796;SDS011;63842;52.144;5.360;2024-01-10T11:51:47;12.30;;;3.22;;
70796;SDS011;63842;52.144;5.360;2024-01-10T11:54:34;12.07;;;3.72;;
70796;SDS011;63842;52.144;5.360;2024-01-10T11:57:02;14.27;;;4.40;;
70796;SDS011;63842;52.144;5.360;2024-01-10T11:59:45;8.57;;;3.58;;
70796;SDS011;63842;52.144;5.360;2024-01-10T12:02:23;11.38;;;4.07;;
70796;SDS011;63842;52.144;5.360;2024-01-10T12:08:40;12.45;;;3.53;;
70796;SDS011;63842;52.144;5.360;2024-01-10T12:11:15;11.88;;;4.10;;
70796;SDS011;63842;52.144;5.360;2024-01-10T12:13:46;11.80;;;4.10;;
70796;SDS011;63842;52.144;5.360;2024-01-10T12:16:39;12.25;;;4.00;;
70796;SDS011;63842;52.144;5.360;2024-01-10T12:19:20;12.00;;;4.03;;
70796;SDS011;63842;52.144;5.360;2024-01-10T12:22:00;9.32;;;3.55;;
70796;SDS011;63842;52.144;5.360;2024-01-10T12:24:42;12.80;;;3.83;;
70796;SDS011;63842;52.144;5.360;2024-01-10T12:27:17;13.05;;;3.75;;
70796;SDS011;63842;52.144;5.360;2024-01-10T12:29:56;12.15;;;3.95;;
70796;SDS011;63842;52.144;5.360;2024-01-10T12:35:18;13.00;;;4.03;;
70796;SDS011;63842;52.144;5.360;2024-01-10T12:37:55;10.38;;;3.50;;
70796;SDS011;63842;52.144;5.360;2024-01-10T12:40:25;10.80;;;3.92;;
70796;SDS011;63842;52.144;5.360;2024-01-10T12:43:02;13.38;;;4.25;;
70796;SDS011;63842;52.144;5.360;2024-01-10T12:45:35;15.48;;;3.70;;
70796;SDS011;63842;52.144;5.360;2024-01-10T12:48:13;11.50;;;3.58;;
70796;SDS011;63842;52.144;5.360;2024-01-10T12:51:14;9.27;;;3.35;;
70796;SDS011;63842;52.144;5.360;2024-01-10T12:53:42;14.60;;;4.07;;
70796;SDS011;63842;52.144;5.360;2024-01-10T12:56:10;13.52;;;4.40;;
70796;SDS011;63842;52.144;5.360;2024-01-10T12:58:43;11.30;;;3.92;;
70796;SDS011;63842;52.144;5.360;2024-01-10T13:01:16;12.52;;;3.65;;
70796;SDS011;63842;52.144;5.360;2024-01-10T13:03:46;21.73;;;4.88;;
70796;SDS011;63842;52.144;5.360;2024-01-10T13:06:37;11.98;;;3.75;;
70796;SDS011;63842;52.144;5.360;2024-01-10T13:09:32;11.02;;;3.83;;
70796;SDS011;63842;52.144;5.360;2024-01-10T13:12:04;11.30;;;3.72;;
70796;SDS011;63842;52.144;5.360;2024-01-10T13:14:45;11.27;;;3.75;;
70796;SDS011;63842;52.144;5.360;2024-01-10T13:17:28;11.38;;;4.15;;
70796;SDS011;63842;52.144;5.360;2024-01-10T13:20:08;11.23;;;4.10;;
70796;SDS011;63842;52.144;5.360;2024-01-10T13:23:04;10.85;;;3.80;;
70796;SDS011;63842;52.144;5.360;2024-01-10T13:25:47;10.35;;;4.07;;
70796;SDS011;63842;52.144;5.360;2024-01-10T13:28:58;11.68;;;4.20;;
70796;SDS011;63842;52.144;5.360;2024-01-10T13:31:38;12.18;;;4.03;;
70796;SDS011;63842;52.144;5.360;2024-01-10T13:34:09;13.35;;;4.22;;
70796;SDS011;63842;52.144;5.360;2024-01-10T13:36:51;13.23;;;4.13;;
70796;SDS011;63842;52.144;5.360;2024-01-10T13:39:18;13.63;;;4.10;;
70796;SDS011;63842;52.144;5.360;2024-01-10T13:41:55;12.00;;;4.18;;
70796;SDS011;63842;52.144;5.360;2024-01-10T13:44:28;12.07;;;3.97;;
70796;SDS011;63842;52.144;5.360;2024-01-10T13:47:03;13.02;;;3.97;;
70796;SDS011;63842;52.144;5.360;2024-01-10T13:49:39;11.85;;;4.18;;
70796;SDS011;63842;52.144;5.360;2024-01-10T13:52:39;12.60;;;4.10;;
70796;SDS011;63842;52.144;5.360;2024-01-10T13:55:32;11.13;;;3.67;;
70796;SDS011;63842;52.144;5.360;2024-01-10T14:00:59;13.40;;;3.92;;
70796;SDS011;63842;52.144;5.360;2024-01-10T14:03:38;14.75;;;4.20;;
70796;SDS011;63842;52.144;5.360;2024-01-10T14:06:06;12.23;;;4.03;;
70796;SDS011;63842;52.144;5.360;2024-01-10T14:08:46;11.93;;;3.65;;
70796;SDS011;63842;52.144;5.360;2024-01-10T14:11:15;11.93;;;3.75;;
70796;SDS011;63842;52.144;5.360;2024-01-10T14:13:52;12.20;;;4.05;;
70796;SDS011;63842;52.144;5.360;2024-01-10T14:16:41;14.45;;;4.38;;
70796;SDS011;63842;52.144;5.360;2024-01-10T14:19:37;12.38;;;3.88;;
70796;SDS011;63842;52.144;5.360;2024-01-10T14:22:11;10.02;;;3.92;;
70796;SDS011;63842;52.144;5.360;2024-01-10T14:25:11;11.93;;;4.07;;
70796;SDS011;63842;52.144;5.360;2024-01-10T14:27:43;13.38;;;4.13;;
70796;SDS011;63842;52.144;5.360;2024-01-10T14:30:12;12.02;;;4.22;;
70796;SDS011;63842;52.144;5.360;2024-01-10T14:32:43;11.85;;;3.60;;
70796;SDS011;63842;52.144;5.360;2024-01-10T14:35:43;13.35;;;4.20;;
70796;SDS011;63842;52.144;5.360;2024-01-10T14:38:40;11.90;;;3.53;;
70796;SDS011;63842;52.144;5.360;2024-01-10T14:41:09;11.05;;;3.45;;
70796;SDS011;63842;52.144;5.360;2024-01-10T14:43:43;12.75;;;3.95;;
70796;SDS011;63842;52.144;5.360;2024-01-10T14:46:11;11.23;;;4.22;;
70796;SDS011;63842;52.144;5.360;2024-01-10T14:49:11;10.50;;;3.83;;
70796;SDS011;63842;52.144;5.360;2024-01-10T14:52:22;11.75;;;4.05;;
70796;SDS011;63842;52.144;5.360;2024-01-10T14:54:58;11.77;;;4.28;;
70796;SDS011;63842;52.144;5.360;2024-01-10T14:57:44;11.60;;;4.35;;
70796;SDS011;63842;52.144;5.360;2024-01-10T15:00:14;15.27;;;4.55;;
70796;SDS011;63842;52.144;5.360;2024-01-10T15:02:46;11.95;;;4.43;;
70796;SDS011;63842;52.144;5.360;2024-01-10T15:05:24;13.73;;;4.50;;
70796;SDS011;63842;52.144;5.360;2024-01-10T15:08:09;11.63;;;4.00;;
70796;SDS011;63842;52.144;5.360;2024-01-10T15:10:38;13.88;;;4.35;;
70796;SDS011;63842;52.144;5.360;2024-01-10T15:13:09;11.40;;;3.67;;
70796;SDS011;63842;52.144;5.360;2024-01-10T15:15:55;11.63;;;4.03;;
70796;SDS011;63842;52.144;5.360;2024-01-10T15:18:36;9.82;;;3.60;;
70796;SDS011;63842;52.144;5.360;2024-01-10T15:21:05;11.57;;;3.65;;
70796;SDS011;63842;52.144;5.360;2024-01-10T15:23:47;11.85;;;4.00;;
70796;SDS011;63842;52.144;5.360;2024-01-10T15:26:20;12.00;;;3.97;;
70796;SDS011;63842;52.144;5.360;2024-01-10T15:29:04;14.60;;;3.80;;
70796;SDS011;63842;52.144;5.360;2024-01-10T15:31:37;12.55;;;4.00;;
70796;SDS011;63842;52.144;5.360;2024-01-10T15:34:11;11.07;;;3.75;;
70796;SDS011;63842;52.144;5.360;2024-01-10T15:36:41;11.95;;;3.85;;
70796;SDS011;63842;52.144;5.360;2024-01-10T15:39:13;12.90;;;3.83;;
70796;SDS011;63842;52.144;5.360;2024-01-10T15:41:51;11.27;;;3.70;;
70796;SDS011;63842;52.144;5.360;2024-01-10T15:44:22;11.23;;;3.72;;
70796;SDS011;63842;52.144;5.360;2024-01-10T15:47:06;11.20;;;3.95;;
70796;SDS011;63842;52.144;5.360;2024-01-10T15:49:41;11.88;;;3.92;;
70796;SDS011;63842;52.144;5.360;2024-01-10T15:52:19;11.68;;;3.95;;
70796;SDS011;63842;52.144;5.360;2024-01-10T15:58:22;14.00;;;4.00;;
70796;SDS011;63842;52.144;5.360;2024-01-10T16:00:52;13.55;;;4.13;;
70796;SDS011;63842;52.144;5.360;2024-01-10T16:03:20;11.07;;;3.88;;
70796;SDS011;63842;52.144;5.360;2024-01-10T16:05:52;11.73;;;4.18;;
70796;SDS011;63842;52.144;5.360;2024-01-10T16:08:38;11.50;;;4.18;;
70796;SDS011;63842;52.144;5.360;2024-01-10T16:11:08;13.38;;;4.45;;
70796;SDS011;63842;52.144;5.360;2024-01-10T16:16:15;12.73;;;4.28;;
70796;SDS011;63842;52.144;5.360;2024-01-10T16:18:42;10.63;;;3.67;;
70796;SDS011;63842;52.144;5.360;2024-01-10T16:21:10;12.45;;;4.05;;
70796;SDS011;63842;52.144;5.360;2024-01-10T16:23:51;14.10;;;4.35;;
70796;SDS011;63842;52.144;5.360;2024-01-10T16:26:37;15.68;;;4.47;;